sensor_id;sensor_type;location;lat;lon;timestamp;temperature;humidity
33761;DHT22;20084;47.912;19.044;2023-05-16T00:00:21;13.40;99.90
33761;DHT22;20084;47.912;19.044;2023-05-16T00:02:49;13.30;99.90
33761;DHT22;20084;47.912;19.044;2023-05-16T00:05:15;13.30;99.90
33761;DHT22;20084;47.912;19.044;2023-05-16T00:07:41;13.30;99.90
33761;DHT22;20084;47.912;19.044;2023-05-16T00:10:07;13.30;99.90
33761;DHT22;20084;47.912;19.044;2023-05-16T00:12:32;13.40;99.90
33761;DHT22;20084;47.912;19.044;2023-05-16T00:15:01;13.40;99.90
33761;DHT22;20084;47.912;19.044;2023-05-16T00:17:26;13.30;99.90
33761;DHT22;20084;47.912;19.044;2023-05-16T00:19:53;13.30;99.90
33761;DHT22;20084;47.912;19.044;2023-05-16T00:22:25;13.20;99.90
33761;DHT22;20084;47.912;19.044;2023-05-16T00:24:51;13.30;99.90
33761;DHT22;20084;47.912;19.044;2023-05-16T00:27:17;13.30;99.90
33761;DHT22;20084;47.912;19.044;2023-05-16T00:29:42;13.30;99.90
33761;DHT22;20084;47.912;19.044;2023-05-16T00:32:08;13.30;99.90
33761;DHT22;20084;47.912;19.044;2023-05-16T00:34:34;13.30;99.90
33761;DHT22;20084;47.912;19.044;2023-05-16T00:36:59;13.30;99.90
33761;DHT22;20084;47.912;19.044;2023-05-16T00:39:25;13.30;99.90
33761;DHT22;20084;47.912;19.044;2023-05-16T00:41:50;13.30;99.90
33761;DHT22;20084;47.912;19.044;2023-05-16T00:44:16;13.20;99.90
33761;DHT22;20084;47.912;19.044;2023-05-16T00:46:42;13.10;99.90
33761;DHT22;20084;47.912;19.044;2023-05-16T00:49:07;13.10;99.90
33761;DHT22;20084;47.912;19.044;2023-05-16T00:51:33;13.10;99.90
33761;DHT22;20084;47.912;19.044;2023-05-16T00:53:59;13.10;99.90
33761;DHT22;20084;47.912;19.044;2023-05-16T00:56:25;13.10;99.90
33761;DHT22;20084;47.912;19.044;2023-05-16T00:58:50;13.10;99.90
33761;DHT22;20084;47.912;19.044;2023-05-16T01:01:16;13.20;99.90
33761;DHT22;20084;47.912;19.044;2023-05-16T01:03:43;13.10;99.90
33761;DHT22;20084;47.912;19.044;2023-05-16T01:06:11;13.20;99.90
33761;DHT22;20084;47.912;19.044;2023-05-16T01:08:36;13.20;99.90
33761;DHT22;20084;47.912;19.044;2023-05-16T01:18:51;13.20;99.90
33761;DHT22;20084;47.912;19.044;2023-05-16T01:21:20;13.10;99.90
33761;DHT22;20084;47.912;19.044;2023-05-16T01:26:35;13.10;99.90
33761;DHT22;20084;47.912;19.044;2023-05-16T01:29:01;13.20;99.90
33761;DHT22;20084;47.912;19.044;2023-05-16T01:31:26;13.20;99.90
33761;DHT22;20084;47.912;19.044;2023-05-16T01:33:53;13.10;99.90
33761;DHT22;20084;47.912;19.044;2023-05-16T01:36:25;13.20;99.90
33761;DHT22;20084;47.912;19.044;2023-05-16T01:41:24;13.20;99.90
33761;DHT22;20084;47.912;19.044;2023-05-16T01:43:51;13.20;99.90
33761;DHT22;20084;47.912;19.044;2023-05-16T01:46:20;13.20;99.90
33761;DHT22;20084;47.912;19.044;2023-05-16T01:51:21;13.20;99.90
33761;DHT22;20084;47.912;19.044;2023-05-16T01:53:47;13.20;99.90
33761;DHT22;20084;47.912;19.044;2023-05-16T01:56:14;13.30;99.90
33761;DHT22;20084;47.912;19.044;2023-05-16T01:58:40;13.30;99.90
33761;DHT22;20084;47.912;19.044;2023-05-16T02:01:06;13.30;99.90
33761;DHT22;20084;47.912;19.044;2023-05-16T02:03:32;13.30;99.90
33761;DHT22;20084;47.912;19.044;2023-05-16T02:05:57;13.20;99.90
33761;DHT22;20084;47.912;19.044;2023-05-16T02:08:23;13.20;99.90
33761;DHT22;20084;47.912;19.044;2023-05-16T02:10:49;13.20;99.90
33761;DHT22;20084;47.912;19.044;2023-05-16T02:13:14;13.10;99.90
33761;DHT22;20084;47.912;19.044;2023-05-16T02:15:40;13.10;99.90
33761;DHT22;20084;47.912;19.044;2023-05-16T02:18:05;13.10;99.90
33761;DHT22;20084;47.912;19.044;2023-05-16T02:20:31;13.10;99.90
33761;DHT22;20084;47.912;19.044;2023-05-16T02:22:57;13.10;99.90
33761;DHT22;20084;47.912;19.044;2023-05-16T02:25:23;13.10;99.90
33761;DHT22;20084;47.912;19.044;2023-05-16T02:27:48;13.10;99.90
33761;DHT22;20084;47.912;19.044;2023-05-16T02:30:14;13.10;99.90
33761;DHT22;20084;47.912;19.044;2023-05-16T02:32:40;13.10;99.90
33761;DHT22;20084;47.912;19.044;2023-05-16T02:35:05;13.20;99.90
33761;DHT22;20084;47.912;19.044;2023-05-16T02:37:32;13.20;99.90
33761;DHT22;20084;47.912;19.044;2023-05-16T02:39:58;13.30;99.90
33761;DHT22;20084;47.912;19.044;2023-05-16T02:42:24;13.30;99.90
33761;DHT22;20084;47.912;19.044;2023-05-16T02:44:51;13.30;99.90
33761;DHT22;20084;47.912;19.044;2023-05-16T02:47:16;13.30;99.90
33761;DHT22;20084;47.912;19.044;2023-05-16T02:49:42;13.20;99.90
33761;DHT22;20084;47.912;19.044;2023-05-16T02:52:07;13.20;99.90
33761;DHT22;20084;47.912;19.044;2023-05-16T02:54:33;13.20;99.90
33761;DHT22;20084;47.912;19.044;2023-05-16T02:56:59;13.20;99.90
33761;DHT22;20084;47.912;19.044;2023-05-16T02:59:25;13.30;99.90
33761;DHT22;20084;47.912;19.044;2023-05-16T03:01:51;13.20;99.90
33761;DHT22;20084;47.912;19.044;2023-05-16T03:04:16;13.30;99.90
33761;DHT22;20084;47.912;19.044;2023-05-16T03:06:42;13.30;99.90
33761;DHT22;20084;47.912;19.044;2023-05-16T03:09:07;13.20;99.90
33761;DHT22;20084;47.912;19.044;2023-05-16T03:11:33;13.20;99.90
33761;DHT22;20084;47.912;19.044;2023-05-16T03:13:59;13.20;99.90
33761;DHT22;20084;47.912;19.044;2023-05-16T03:16:24;13.20;99.90
33761;DHT22;20084;47.912;19.044;2023-05-16T03:18:50;13.30;99.90
33761;DHT22;20084;47.912;19.044;2023-05-16T03:21:15;13.20;99.90
33761;DHT22;20084;47.912;19.044;2023-05-16T03:23:41;13.20;99.90
33761;DHT22;20084;47.912;19.044;2023-05-16T03:26:07;13.20;99.90
33761;DHT22;20084;47.912;19.044;2023-05-16T03:28:32;13.20;99.90
33761;DHT22;20084;47.912;19.044;2023-05-16T03:30:58;13.30;99.90
33761;DHT22;20084;47.912;19.044;2023-05-16T03:33:24;13.30;99.90
33761;DHT22;20084;47.912;19.044;2023-05-16T03:35:50;13.20;99.90
33761;DHT22;20084;47.912;19.044;2023-05-16T03:38:16;13.20;99.90
33761;DHT22;20084;47.912;19.044;2023-05-16T03:40:42;13.20;99.90
33761;DHT22;20084;47.912;19.044;2023-05-16T03:43:07;13.30;99.90
33761;DHT22;20084;47.912;19.044;2023-05-16T03:45:33;13.30;99.90
33761;DHT22;20084;47.912;19.044;2023-05-16T03:47:58;13.30;99.90
33761;DHT22;20084;47.912;19.044;2023-05-16T03:50:24;13.30;99.90
33761;DHT22;20084;47.912;19.044;2023-05-16T03:52:50;13.30;99.90
33761;DHT22;20084;47.912;19.044;2023-05-16T03:55:18;13.30;99.90
33761;DHT22;20084;47.912;19.044;2023-05-16T03:57:44;13.30;99.90
33761;DHT22;20084;47.912;19.044;2023-05-16T04:00:10;13.30;99.90
33761;DHT22;20084;47.912;19.044;2023-05-16T04:02:37;13.30;99.90
33761;DHT22;20084;47.912;19.044;2023-05-16T04:05:05;13.30;99.90
33761;DHT22;20084;47.912;19.044;2023-05-16T04:07:32;13.30;99.90
33761;DHT22;20084;47.912;19.044;2023-05-16T04:09:57;13.30;99.90
33761;DHT22;20084;47.912;19.044;2023-05-16T04:12:23;13.40;99.90
33761;DHT22;20084;47.912;19.044;2023-05-16T04:14:48;13.40;99.90
33761;DHT22;20084;47.912;19.044;2023-05-16T04:17:14;13.40;99.90
33761;DHT22;20084;47.912;19.044;2023-05-16T04:19:39;13.40;99.90
33761;DHT22;20084;47.912;19.044;2023-05-16T04:22:05;13.40;99.90
33761;DHT22;20084;47.912;19.044;2023-05-16T04:24:32;13.50;99.90
33761;DHT22;20084;47.912;19.044;2023-05-16T04:26:57;13.50;99.90
33761;DHT22;20084;47.912;19.044;2023-05-16T04:29:23;13.50;99.90
33761;DHT22;20084;47.912;19.044;2023-05-16T04:31:48;13.50;99.90
33761;DHT22;20084;47.912;19.044;2023-05-16T04:34:14;13.60;99.90
33761;DHT22;20084;47.912;19.044;2023-05-16T04:36:40;13.60;99.90
33761;DHT22;20084;47.912;19.044;2023-05-16T04:39:06;13.60;99.90
33761;DHT22;20084;47.912;19.044;2023-05-16T04:41:31;13.70;99.90
33761;DHT22;20084;47.912;19.044;2023-05-16T04:43:59;13.70;99.90
33761;DHT22;20084;47.912;19.044;2023-05-16T04:46:25;13.80;99.90
33761;DHT22;20084;47.912;19.044;2023-05-16T04:48:51;13.80;99.90
33761;DHT22;20084;47.912;19.044;2023-05-16T04:51:16;13.80;99.90
33761;DHT22;20084;47.912;19.044;2023-05-16T04:53:42;13.80;99.90
33761;DHT22;20084;47.912;19.044;2023-05-16T04:56:07;13.80;99.90
33761;DHT22;20084;47.912;19.044;2023-05-16T04:58:33;13.80;99.90
33761;DHT22;20084;47.912;19.044;2023-05-16T05:00:58;13.80;99.90
33761;DHT22;20084;47.912;19.044;2023-05-16T05:03:24;13.90;99.90
33761;DHT22;20084;47.912;19.044;2023-05-16T05:05:50;13.90;99.90
33761;DHT22;20084;47.912;19.044;2023-05-16T05:08:16;13.90;99.90
33761;DHT22;20084;47.912;19.044;2023-05-16T05:10:42;13.90;99.90
33761;DHT22;20084;47.912;19.044;2023-05-16T05:13:09;13.90;99.90
33761;DHT22;20084;47.912;19.044;2023-05-16T05:15:34;14.00;99.90
33761;DHT22;20084;47.912;19.044;2023-05-16T05:18:00;14.00;99.90
33761;DHT22;20084;47.912;19.044;2023-05-16T05:20:25;14.00;99.90
33761;DHT22;20084;47.912;19.044;2023-05-16T05:22:51;14.00;99.90
33761;DHT22;20084;47.912;19.044;2023-05-16T05:25:17;14.10;99.90
33761;DHT22;20084;47.912;19.044;2023-05-16T05:27:42;14.10;99.90
33761;DHT22;20084;47.912;19.044;2023-05-16T05:30:08;14.20;99.90
33761;DHT22;20084;47.912;19.044;2023-05-16T05:32:33;14.30;99.90
33761;DHT22;20084;47.912;19.044;2023-05-16T05:34:59;14.30;99.90
33761;DHT22;20084;47.912;19.044;2023-05-16T05:37:25;14.40;99.90
33761;DHT22;20084;47.912;19.044;2023-05-16T05:39:50;14.40;99.90
33761;DHT22;20084;47.912;19.044;2023-05-16T05:42:16;14.30;99.90
33761;DHT22;20084;47.912;19.044;2023-05-16T05:44:41;14.40;99.90
33761;DHT22;20084;47.912;19.044;2023-05-16T05:47:07;14.50;99.90
33761;DHT22;20084;47.912;19.044;2023-05-16T05:49:32;14.50;99.90
33761;DHT22;20084;47.912;19.044;2023-05-16T05:51:58;14.50;99.90
33761;DHT22;20084;47.912;19.044;2023-05-16T05:54:24;14.50;99.90
33761;DHT22;20084;47.912;19.044;2023-05-16T05:56:50;14.50;99.90
33761;DHT22;20084;47.912;19.044;2023-05-16T05:59:15;14.60;99.90
33761;DHT22;20084;47.912;19.044;2023-05-16T06:01:41;14.50;99.90
33761;DHT22;20084;47.912;19.044;2023-05-16T06:04:08;14.50;99.90
33761;DHT22;20084;47.912;19.044;2023-05-16T06:06:33;14.50;99.90
33761;DHT22;20084;47.912;19.044;2023-05-16T06:08:59;14.50;99.90
33761;DHT22;20084;47.912;19.044;2023-05-16T06:11:24;14.60;99.90
33761;DHT22;20084;47.912;19.044;2023-05-16T06:13:50;14.60;99.90
33761;DHT22;20084;47.912;19.044;2023-05-16T06:16:16;14.60;99.90
33761;DHT22;20084;47.912;19.044;2023-05-16T06:18:41;14.60;99.90
33761;DHT22;20084;47.912;19.044;2023-05-16T06:21:07;14.60;99.90
33761;DHT22;20084;47.912;19.044;2023-05-16T06:23:33;14.70;99.90
33761;DHT22;20084;47.912;19.044;2023-05-16T06:26:00;14.70;99.90
33761;DHT22;20084;47.912;19.044;2023-05-16T06:28:26;14.70;99.90
33761;DHT22;20084;47.912;19.044;2023-05-16T06:30:51;14.70;99.90
33761;DHT22;20084;47.912;19.044;2023-05-16T06:33:17;14.70;99.90
33761;DHT22;20084;47.912;19.044;2023-05-16T06:35:43;14.70;99.90
33761;DHT22;20084;47.912;19.044;2023-05-16T06:38:08;14.70;99.90
33761;DHT22;20084;47.912;19.044;2023-05-16T06:40:34;14.70;99.90
33761;DHT22;20084;47.912;19.044;2023-05-16T06:42:59;14.80;99.90
33761;DHT22;20084;47.912;19.044;2023-05-16T06:45:25;14.70;99.90
33761;DHT22;20084;47.912;19.044;2023-05-16T06:47:50;14.80;99.90
33761;DHT22;20084;47.912;19.044;2023-05-16T06:50:16;14.80;99.90
33761;DHT22;20084;47.912;19.044;2023-05-16T06:52:42;14.70;99.90
33761;DHT22;20084;47.912;19.044;2023-05-16T06:55:07;14.70;99.90
33761;DHT22;20084;47.912;19.044;2023-05-16T06:57:33;14.60;99.90
33761;DHT22;20084;47.912;19.044;2023-05-16T06:59:58;14.60;99.90
33761;DHT22;20084;47.912;19.044;2023-05-16T07:02:24;14.50;99.90
33761;DHT22;20084;47.912;19.044;2023-05-16T07:04:50;14.50;99.90
33761;DHT22;20084;47.912;19.044;2023-05-16T07:07:15;14.40;99.90
33761;DHT22;20084;47.912;19.044;2023-05-16T07:09:41;14.40;99.90
33761;DHT22;20084;47.912;19.044;2023-05-16T07:12:07;14.40;99.90
33761;DHT22;20084;47.912;19.044;2023-05-16T07:14:33;14.40;99.90
33761;DHT22;20084;47.912;19.044;2023-05-16T07:16:58;14.40;99.90
33761;DHT22;20084;47.912;19.044;2023-05-16T07:19:24;14.40;99.90
33761;DHT22;20084;47.912;19.044;2023-05-16T07:21:49;14.40;99.90
33761;DHT22;20084;47.912;19.044;2023-05-16T07:24:15;14.50;99.90
33761;DHT22;20084;47.912;19.044;2023-05-16T07:26:41;14.40;99.90
33761;DHT22;20084;47.912;19.044;2023-05-16T07:29:06;14.40;99.90
33761;DHT22;20084;47.912;19.044;2023-05-16T07:31:32;14.30;99.90
33761;DHT22;20084;47.912;19.044;2023-05-16T07:33:57;14.30;99.90
33761;DHT22;20084;47.912;19.044;2023-05-16T07:36:23;14.30;99.90
33761;DHT22;20084;47.912;19.044;2023-05-16T07:38:49;14.40;99.90
33761;DHT22;20084;47.912;19.044;2023-05-16T07:41:14;14.40;99.90
33761;DHT22;20084;47.912;19.044;2023-05-16T07:43:40;14.40;99.90
33761;DHT22;20084;47.912;19.044;2023-05-16T07:46:05;14.40;99.90
33761;DHT22;20084;47.912;19.044;2023-05-16T07:48:31;14.40;99.90
33761;DHT22;20084;47.912;19.044;2023-05-16T07:50:56;14.40;99.90
33761;DHT22;20084;47.912;19.044;2023-05-16T07:53:22;14.40;99.90
33761;DHT22;20084;47.912;19.044;2023-05-16T07:55:48;14.50;99.90
33761;DHT22;20084;47.912;19.044;2023-05-16T07:58:13;14.50;99.90
33761;DHT22;20084;47.912;19.044;2023-05-16T08:00:39;14.50;99.90
33761;DHT22;20084;47.912;19.044;2023-05-16T08:03:04;14.50;99.90
33761;DHT22;20084;47.912;19.044;2023-05-16T08:05:30;14.50;99.90
33761;DHT22;20084;47.912;19.044;2023-05-16T08:07:56;14.60;99.90
33761;DHT22;20084;47.912;19.044;2023-05-16T08:10:21;14.60;99.90
33761;DHT22;20084;47.912;19.044;2023-05-16T08:12:48;14.70;99.90
33761;DHT22;20084;47.912;19.044;2023-05-16T08:15:13;14.70;99.90
33761;DHT22;20084;47.912;19.044;2023-05-16T08:17:39;14.60;99.90
33761;DHT22;20084;47.912;19.044;2023-05-16T08:20:04;14.60;99.90
33761;DHT22;20084;47.912;19.044;2023-05-16T08:22:30;14.60;99.90
33761;DHT22;20084;47.912;19.044;2023-05-16T08:24:56;14.70;99.90
33761;DHT22;20084;47.912;19.044;2023-05-16T08:27:22;14.70;99.90
33761;DHT22;20084;47.912;19.044;2023-05-16T08:29:48;14.70;99.90
33761;DHT22;20084;47.912;19.044;2023-05-16T08:32:13;14.70;99.90
33761;DHT22;20084;47.912;19.044;2023-05-16T08:34:39;14.70;99.90
33761;DHT22;20084;47.912;19.044;2023-05-16T08:37:04;14.70;99.90
33761;DHT22;20084;47.912;19.044;2023-05-16T08:39:30;14.70;99.90
33761;DHT22;20084;47.912;19.044;2023-05-16T08:41:56;14.70;99.90
33761;DHT22;20084;47.912;19.044;2023-05-16T08:44:23;14.70;99.90
33761;DHT22;20084;47.912;19.044;2023-05-16T08:46:49;14.60;99.90
33761;DHT22;20084;47.912;19.044;2023-05-16T08:49:15;14.70;99.90
33761;DHT22;20084;47.912;19.044;2023-05-16T08:51:41;14.70;99.90
33761;DHT22;20084;47.912;19.044;2023-05-16T08:54:11;14.70;99.90
33761;DHT22;20084;47.912;19.044;2023-05-16T08:56:37;14.60;99.90
33761;DHT22;20084;47.912;19.044;2023-05-16T08:59:03;14.60;99.90
33761;DHT22;20084;47.912;19.044;2023-05-16T09:01:29;14.70;99.90
33761;DHT22;20084;47.912;19.044;2023-05-16T09:03:55;14.70;99.90
33761;DHT22;20084;47.912;19.044;2023-05-16T09:06:21;14.80;99.90
33761;DHT22;20084;47.912;19.044;2023-05-16T09:08:46;14.80;99.90
33761;DHT22;20084;47.912;19.044;2023-05-16T09:11:12;14.70;99.90
33761;DHT22;20084;47.912;19.044;2023-05-16T09:13:38;14.80;99.90
33761;DHT22;20084;47.912;19.044;2023-05-16T09:16:07;14.80;99.90
33761;DHT22;20084;47.912;19.044;2023-05-16T09:18:32;14.90;99.90
33761;DHT22;20084;47.912;19.044;2023-05-16T09:20:58;14.80;99.90
33761;DHT22;20084;47.912;19.044;2023-05-16T09:23:24;14.80;99.90
33761;DHT22;20084;47.912;19.044;2023-05-16T09:25:51;14.90;99.90
33761;DHT22;20084;47.912;19.044;2023-05-16T09:28:17;14.90;99.90
33761;DHT22;20084;47.912;19.044;2023-05-16T09:30:44;14.90;99.90
33761;DHT22;20084;47.912;19.044;2023-05-16T09:33:10;14.90;99.90
33761;DHT22;20084;47.912;19.044;2023-05-16T09:35:36;14.90;99.90
33761;DHT22;20084;47.912;19.044;2023-05-16T09:38:02;15.00;99.90
33761;DHT22;20084;47.912;19.044;2023-05-16T09:40:27;15.00;99.90
33761;DHT22;20084;47.912;19.044;2023-05-16T09:43:00;15.00;99.90
33761;DHT22;20084;47.912;19.044;2023-05-16T09:45:26;15.00;99.90
33761;DHT22;20084;47.912;19.044;2023-05-16T09:47:51;15.00;99.90
33761;DHT22;20084;47.912;19.044;2023-05-16T09:50:17;14.90;99.90
33761;DHT22;20084;47.912;19.044;2023-05-16T09:52:42;14.90;99.90
33761;DHT22;20084;47.912;19.044;2023-05-16T09:55:08;14.90;99.90
33761;DHT22;20084;47.912;19.044;2023-05-16T09:57:37;15.00;99.90
33761;DHT22;20084;47.912;19.044;2023-05-16T10:00:05;15.00;99.90
33761;DHT22;20084;47.912;19.044;2023-05-16T10:02:32;15.10;99.90
33761;DHT22;20084;47.912;19.044;2023-05-16T10:04:58;15.10;99.90
33761;DHT22;20084;47.912;19.044;2023-05-16T10:07:24;15.10;99.90
33761;DHT22;20084;47.912;19.044;2023-05-16T10:09:50;15.10;99.90
33761;DHT22;20084;47.912;19.044;2023-05-16T10:12:16;15.10;99.90
33761;DHT22;20084;47.912;19.044;2023-05-16T10:14:42;15.20;99.90
33761;DHT22;20084;47.912;19.044;2023-05-16T10:17:11;15.20;99.90
33761;DHT22;20084;47.912;19.044;2023-05-16T10:19:38;15.20;99.90
33761;DHT22;20084;47.912;19.044;2023-05-16T10:22:05;15.20;99.90
33761;DHT22;20084;47.912;19.044;2023-05-16T10:24:46;15.30;99.90
33761;DHT22;20084;47.912;19.044;2023-05-16T10:27:12;15.20;99.90
33761;DHT22;20084;47.912;19.044;2023-05-16T10:29:39;15.20;99.90
33761;DHT22;20084;47.912;19.044;2023-05-16T10:32:04;15.20;99.90
33761;DHT22;20084;47.912;19.044;2023-05-16T10:34:31;15.30;99.90
33761;DHT22;20084;47.912;19.044;2023-05-16T10:36:57;15.30;99.90
33761;DHT22;20084;47.912;19.044;2023-05-16T10:39:23;15.30;99.90
33761;DHT22;20084;47.912;19.044;2023-05-16T10:41:49;15.30;99.90
33761;DHT22;20084;47.912;19.044;2023-05-16T10:44:14;15.40;99.90
33761;DHT22;20084;47.912;19.044;2023-05-16T10:46:41;15.30;99.90
33761;DHT22;20084;47.912;19.044;2023-05-16T10:49:28;15.30;99.90
33761;DHT22;20084;47.912;19.044;2023-05-16T10:54:38;15.30;99.90
33761;DHT22;20084;47.912;19.044;2023-05-16T10:57:04;15.30;99.90
33761;DHT22;20084;47.912;19.044;2023-05-16T10:59:31;15.30;99.90
33761;DHT22;20084;47.912;19.044;2023-05-16T11:02:03;15.40;99.90
33761;DHT22;20084;47.912;19.044;2023-05-16T11:04:45;15.40;99.90
33761;DHT22;20084;47.912;19.044;2023-05-16T11:07:12;15.40;99.90
33761;DHT22;20084;47.912;19.044;2023-05-16T11:09:40;15.40;99.90
33761;DHT22;20084;47.912;19.044;2023-05-16T11:12:08;15.50;99.90
33761;DHT22;20084;47.912;19.044;2023-05-16T11:14:34;15.50;99.90
33761;DHT22;20084;47.912;19.044;2023-05-16T11:19:34;15.40;99.90
33761;DHT22;20084;47.912;19.044;2023-05-16T11:22:07;15.50;99.90
33761;DHT22;20084;47.912;19.044;2023-05-16T11:24:32;15.50;99.90
33761;DHT22;20084;47.912;19.044;2023-05-16T11:26:59;15.60;99.90
33761;DHT22;20084;47.912;19.044;2023-05-16T11:29:26;15.60;99.90
33761;DHT22;20084;47.912;19.044;2023-05-16T11:31:52;15.60;99.90
33761;DHT22;20084;47.912;19.044;2023-05-16T11:34:18;15.60;99.90
33761;DHT22;20084;47.912;19.044;2023-05-16T11:36:44;15.70;99.90
33761;DHT22;20084;47.912;19.044;2023-05-16T11:39:09;15.60;99.90
33761;DHT22;20084;47.912;19.044;2023-05-16T11:41:37;15.60;99.90
33761;DHT22;20084;47.912;19.044;2023-05-16T11:44:03;15.70;99.90
33761;DHT22;20084;47.912;19.044;2023-05-16T11:46:30;15.70;99.90
33761;DHT22;20084;47.912;19.044;2023-05-16T11:48:55;15.70;99.90
33761;DHT22;20084;47.912;19.044;2023-05-16T11:51:21;15.70;99.90
33761;DHT22;20084;47.912;19.044;2023-05-16T11:53:47;15.70;99.90
33761;DHT22;20084;47.912;19.044;2023-05-16T11:56:14;15.70;99.90
33761;DHT22;20084;47.912;19.044;2023-05-16T11:58:40;15.70;99.90
33761;DHT22;20084;47.912;19.044;2023-05-16T12:01:06;15.60;99.90
33761;DHT22;20084;47.912;19.044;2023-05-16T12:03:32;15.70;99.90
33761;DHT22;20084;47.912;19.044;2023-05-16T12:05:59;15.70;99.90
33761;DHT22;20084;47.912;19.044;2023-05-16T12:08:25;15.70;99.90
33761;DHT22;20084;47.912;19.044;2023-05-16T12:10:51;15.70;99.90
33761;DHT22;20084;47.912;19.044;2023-05-16T12:13:17;15.70;99.90
33761;DHT22;20084;47.912;19.044;2023-05-16T12:15:43;15.70;99.90
33761;DHT22;20084;47.912;19.044;2023-05-16T12:18:09;15.70;99.90
33761;DHT22;20084;47.912;19.044;2023-05-16T12:20:35;15.80;99.90
33761;DHT22;20084;47.912;19.044;2023-05-16T12:23:01;15.80;99.90
33761;DHT22;20084;47.912;19.044;2023-05-16T12:27:56;15.90;99.90
33761;DHT22;20084;47.912;19.044;2023-05-16T12:30:22;15.80;99.90
33761;DHT22;20084;47.912;19.044;2023-05-16T12:32:51;15.80;99.90
33761;DHT22;20084;47.912;19.044;2023-05-16T12:35:17;15.80;99.90
33761;DHT22;20084;47.912;19.044;2023-05-16T12:37:42;15.90;99.90
33761;DHT22;20084;47.912;19.044;2023-05-16T12:40:08;15.90;99.90
33761;DHT22;20084;47.912;19.044;2023-05-16T12:42:34;15.90;99.90
33761;DHT22;20084;47.912;19.044;2023-05-16T12:45:00;15.90;99.90
33761;DHT22;20084;47.912;19.044;2023-05-16T12:47:34;15.90;99.90
33761;DHT22;20084;47.912;19.044;2023-05-16T12:50:00;15.90;99.90
33761;DHT22;20084;47.912;19.044;2023-05-16T12:52:27;16.00;99.90
33761;DHT22;20084;47.912;19.044;2023-05-16T12:54:53;16.00;99.90
33761;DHT22;20084;47.912;19.044;2023-05-16T12:57:18;16.00;99.90
33761;DHT22;20084;47.912;19.044;2023-05-16T12:59:44;16.00;99.90
33761;DHT22;20084;47.912;19.044;2023-05-16T13:02:09;16.00;99.90
33761;DHT22;20084;47.912;19.044;2023-05-16T13:04:36;16.00;99.90
33761;DHT22;20084;47.912;19.044;2023-05-16T13:07:01;16.00;99.90
33761;DHT22;20084;47.912;19.044;2023-05-16T13:09:28;16.00;99.90
33761;DHT22;20084;47.912;19.044;2023-05-16T13:11:54;16.00;99.90
33761;DHT22;20084;47.912;19.044;2023-05-16T13:14:20;16.10;99.90
33761;DHT22;20084;47.912;19.044;2023-05-16T13:16:47;16.10;99.90
33761;DHT22;20084;47.912;19.044;2023-05-16T13:19:12;16.10;99.90
33761;DHT22;20084;47.912;19.044;2023-05-16T13:21:38;16.20;99.90
33761;DHT22;20084;47.912;19.044;2023-05-16T13:24:03;16.20;99.90
33761;DHT22;20084;47.912;19.044;2023-05-16T13:26:29;16.30;99.90
33761;DHT22;20084;47.912;19.044;2023-05-16T13:28:55;16.30;99.90
33761;DHT22;20084;47.912;19.044;2023-05-16T13:31:20;16.30;99.90
33761;DHT22;20084;47.912;19.044;2023-05-16T13:33:46;16.30;99.90
33761;DHT22;20084;47.912;19.044;2023-05-16T13:36:12;16.30;99.90
33761;DHT22;20084;47.912;19.044;2023-05-16T13:38:38;16.30;99.90
33761;DHT22;20084;47.912;19.044;2023-05-16T13:41:03;16.30;99.90
33761;DHT22;20084;47.912;19.044;2023-05-16T13:43:29;16.30;99.90
33761;DHT22;20084;47.912;19.044;2023-05-16T13:45:55;16.30;99.90
33761;DHT22;20084;47.912;19.044;2023-05-16T13:48:21;16.30;99.90
33761;DHT22;20084;47.912;19.044;2023-05-16T13:50:46;16.20;99.90
33761;DHT22;20084;47.912;19.044;2023-05-16T13:53:12;16.20;99.90
33761;DHT22;20084;47.912;19.044;2023-05-16T13:55:37;16.20;99.90
33761;DHT22;20084;47.912;19.044;2023-05-16T13:58:03;16.20;99.90
33761;DHT22;20084;47.912;19.044;2023-05-16T14:00:28;16.10;99.90
33761;DHT22;20084;47.912;19.044;2023-05-16T14:02:54;16.10;99.90
33761;DHT22;20084;47.912;19.044;2023-05-16T14:05:20;16.10;99.90
33761;DHT22;20084;47.912;19.044;2023-05-16T14:07:46;16.10;99.90
33761;DHT22;20084;47.912;19.044;2023-05-16T14:10:11;16.10;99.90
33761;DHT22;20084;47.912;19.044;2023-05-16T14:12:37;16.10;99.90
33761;DHT22;20084;47.912;19.044;2023-05-16T14:15:03;16.10;99.90
33761;DHT22;20084;47.912;19.044;2023-05-16T14:17:29;16.10;99.90
33761;DHT22;20084;47.912;19.044;2023-05-16T14:19:54;16.20;99.90
33761;DHT22;20084;47.912;19.044;2023-05-16T14:22:20;16.20;99.90
33761;DHT22;20084;47.912;19.044;2023-05-16T14:24:45;16.20;99.90
33761;DHT22;20084;47.912;19.044;2023-05-16T14:27:11;16.20;99.90
33761;DHT22;20084;47.912;19.044;2023-05-16T14:29:36;16.20;99.90
33761;DHT22;20084;47.912;19.044;2023-05-16T14:32:02;16.30;99.90
33761;DHT22;20084;47.912;19.044;2023-05-16T14:34:28;16.30;99.90
33761;DHT22;20084;47.912;19.044;2023-05-16T14:36:53;16.40;99.90
33761;DHT22;20084;47.912;19.044;2023-05-16T14:39:18;16.40;99.90
33761;DHT22;20084;47.912;19.044;2023-05-16T14:41:44;16.40;99.90
33761;DHT22;20084;47.912;19.044;2023-05-16T14:44:10;16.40;99.90
33761;DHT22;20084;47.912;19.044;2023-05-16T14:46:36;16.50;99.90
33761;DHT22;20084;47.912;19.044;2023-05-16T14:49:02;16.50;99.90
33761;DHT22;20084;47.912;19.044;2023-05-16T14:51:28;16.50;99.90
33761;DHT22;20084;47.912;19.044;2023-05-16T14:53:53;16.50;99.90
33761;DHT22;20084;47.912;19.044;2023-05-16T14:56:19;16.40;99.90
33761;DHT22;20084;47.912;19.044;2023-05-16T14:58:45;16.40;99.90
33761;DHT22;20084;47.912;19.044;2023-05-16T15:01:10;16.40;99.90
33761;DHT22;20084;47.912;19.044;2023-05-16T15:03:36;16.40;99.90
33761;DHT22;20084;47.912;19.044;2023-05-16T15:06:02;16.40;99.90
33761;DHT22;20084;47.912;19.044;2023-05-16T15:08:32;16.40;99.90
33761;DHT22;20084;47.912;19.044;2023-05-16T15:10:58;16.40;99.90
33761;DHT22;20084;47.912;19.044;2023-05-16T15:13:24;16.40;99.90
33761;DHT22;20084;47.912;19.044;2023-05-16T15:15:49;16.40;99.90
33761;DHT22;20084;47.912;19.044;2023-05-16T15:18:15;16.40;99.90
33761;DHT22;20084;47.912;19.044;2023-05-16T15:20:41;16.40;99.90
33761;DHT22;20084;47.912;19.044;2023-05-16T15:23:06;16.30;99.90
33761;DHT22;20084;47.912;19.044;2023-05-16T15:25:32;16.30;99.90
33761;DHT22;20084;47.912;19.044;2023-05-16T15:27:57;16.30;99.90
33761;DHT22;20084;47.912;19.044;2023-05-16T15:30:23;16.30;99.90